CheckWX is a tool to help pilots better visualize weather data.  It is not intended as a substitute for an official pre-flight weather briefing.

12:30:04 UTC

PMDY TAF
Henderson Field Airport
Midway Atoll, Midway Islands
PMDY 261120Z 2612/2712 03010KT P6SM FEW025 SCT035 BKN050 FM262100 09011KT P6SM SCT025 SCT045

Mar-26@
12:00 UTC

Mar-26 @ 12:00 UTC

Mar-26@
21:00 UTC

Mar-26 @ 21:00 UTC

PMDY 261120Z 2612/2712 03010KT P6SM FEW025 SCT035 BKN050
Wind
  • 030° at 10 KTS
Cloud Levels
  • Few at 2,500' AGL
  • Scattered at 3,500' AGL
  • Broken at 5,000' AGL

Mar-26@
21:00 UTC

Mar-26 @ 21:00 UTC

Mar-27@
12:00 UTC

Mar-27 @ 12:00 UTC

FM262100 09011KT P6SM SCT025 SCT045

From

From Standard forecast or significant change

Wind
  • 090° at 11 KTS
Cloud Levels
  • Scattered at 2,500' AGL
  • Scattered at 4,500' AGL